This is the latest recevied weather packets stored in our database for station/object FRS049-13. If no packets are shown the sender has not sent any weather packets the latest 1 day(s).
| Time | Temp. | Humidity | Pressure | Rain* | Wind** | Luminosity | Snow |
|---|---|---|---|---|---|---|---|
| 1778139156 | 26.67° C | 73% | 1017 hPa | 0 mm | - | - | - |
| 1778138555 | 26.67° C | 73% | 1018 hPa | 0 mm | - | - | - |
| 1778137954 | 26.67° C | 72% | 1018 hPa | 0 mm | - | - | - |
| 1778137354 | 26.67° C | 72% | 1018 hPa | 0 mm | - | - | - |
| 1778136154 | 25.56° C | 67% | 1018 hPa | 0 mm | - | - | - |
| 1778135555 | 26.11° C | 65% | 1018 hPa | 0 mm | - | - | - |
| 1778134954 | 26.11° C | 65% | 1018 hPa | 0 mm | - | - | - |
| 1778134354 | 26.67° C | 62% | 1018 hPa | 0 mm | - | - | - |
| 1778133754 | 26.67° C | 61% | 1018 hPa | 0 mm | - | - | - |
| 1778133154 | 26.67° C | 61% | 1018 hPa | 0 mm | - | - | - |
| 1778132555 | 26.11° C | 61% | 1018 hPa | 0 mm | - | - | - |
| 1778131953 | 26.11° C | 61% | 1018 hPa | 0 mm | - | - | - |
| 1778131354 | 26.67° C | 60% | 1019 hPa | 0 mm | - | - | - |
| 1778130753 | 26.11° C | 57% | 1019 hPa | 0 mm | - | - | - |
| 1778129553 | 23.89° C | 64% | 1019 hPa | 0 mm | - | - | - |
| 1778128953 | 23.89° C | 64% | 1019 hPa | 0 mm | - | - | - |
| 1778126552 | 22.22° C | 68% | 1018 hPa | 0 mm | - | - | - |
| 1778125952 | 23.33° C | 69% | 1018 hPa | 0 mm | - | - | - |
| 1778124752 | 19.44° C | 70% | 1018 hPa | 0 mm | - | - | - |
| 1778124152 | 19.44° C | 70% | 1018 hPa | 0 mm | - | - | - |
| 1778123552 | 21.67° C | 68% | 1018 hPa | 0 mm | - | - | - |
| 1778122952 | 18.33° C | 72% | 1018 hPa | 0 mm | - | - | - |
| 1778122351 | 18.33° C | 72% | 1018 hPa | 0 mm | - | - | - |
| 1778121151 | 18.33° C | 68% | 1018 hPa | 0 mm | - | - | - |
| 1778120551 | 18.33° C | 68% | 1017 hPa | 0 mm | - | - | - |
* Rain latest hour (hover to see other rain measurements)
** Current wind speed in m/s (hover to see current wind gust speed)